Time;durP1;ratioP1;P1;durP2;ratioP2;P2;SDS_P1;SDS_P2;PMS_P1;PMS_P2;Temp;Humidity;BMP_temperature;BMP_pressure;BME280_temperature;BME280_humidity;BME280_pressure;Samples;Min_cycle;Max_cycle;Signal;HPM_P1;HPM_P2
2021/07/03 00:00:56;;;;;;;11.20;9.08;;;26.30;72.50;;;;;;1924596;74;21022;-53
2021/07/03 00:03:26;;;;;;;10.30;8.48;;;26.30;72.60;;;;;;1924662;74;20998;-53
2021/07/03 00:05:55;;;;;;;11.57;7.60;;;26.20;72.60;;;;;;1924725;74;21101;-53
2021/07/03 00:08:27;;;;;;;9.40;8.50;;;26.10;72.80;;;;;;1924697;74;21023;-53
2021/07/03 00:11:01;;;;;;;9.58;8.60;;;26.10;72.90;;;;;;1924638;74;21480;-54
2021/07/03 00:13:30;;;;;;;14.47;9.75;;;26.10;73.00;;;;;;1924815;74;21096;-53
2021/07/03 00:15:59;;;;;;;11.03;8.68;;;26.10;73.10;;;;;;1924700;74;21096;-53
2021/07/03 00:18:29;;;;;;;9.80;8.68;;;26.00;73.20;;;;;;1924604;74;21104;-53
2021/07/03 00:20:58;;;;;;;10.90;9.80;;;25.90;73.30;;;;;;1924641;74;21026;-53
2021/07/03 00:23:27;;;;;;;9.55;8.65;;;25.80;73.50;;;;;;1924750;74;21014;-53
2021/07/03 00:25:57;;;;;;;9.30;8.08;;;25.80;73.70;;;;;;1924574;74;21096;-54
2021/07/03 00:28:26;;;;;;;10.20;7.80;;;25.80;73.70;;;;;;1924660;74;21138;-53
2021/07/03 00:30:55;;;;;;;11.73;9.00;;;25.90;73.60;;;;;;1924572;74;21015;-54
2021/07/03 00:33:25;;;;;;;11.83;8.38;;;25.90;73.50;;;;;;1924628;74;21104;-53
2021/07/03 00:35:54;;;;;;;15.78;8.43;;;26.00;73.40;;;;;;1924730;74;21011;-54
2021/07/03 00:38:24;;;;;;;10.55;8.43;;;26.00;73.30;;;;;;1924718;74;21104;-53
2021/07/03 00:40:54;;;;;;;12.50;8.40;;;26.00;73.30;;;;;;1924709;74;21567;-52
2021/07/03 00:43:23;;;;;;;11.43;8.20;;;26.00;73.30;;;;;;1903779;74;21131;-53
2021/07/03 00:45:52;;;;;;;12.23;9.00;;;26.00;73.30;;;;;;1924666;74;21336;-53
2021/07/03 00:48:22;;;;;;;12.47;8.55;;;25.90;73.80;;;;;;1924569;74;21019;-53
2021/07/03 00:50:52;;;;;;;13.00;8.00;;;25.90;73.30;;;;;;1924585;74;21113;-53
2021/07/03 00:53:22;;;;;;;12.60;8.75;;;25.90;73.40;;;;;;1924693;74;21100;-53
2021/07/03 00:55:53;;;;;;;9.65;8.40;;;26.00;73.40;;;;;;1924512;74;21073;-53
2021/07/03 00:58:24;;;;;;;10.40;9.03;;;25.90;73.30;;;;;;1924696;74;21039;-53
2021/07/03 01:00:54;;;;;;;11.57;8.80;;;25.90;73.30;;;;;;1924594;74;21023;-53
2021/07/03 01:03:24;;;;;;;10.13;8.88;;;25.90;73.40;;;;;;1924679;74;21136;-52
2021/07/03 01:05:54;;;;;;;11.95;8.65;;;25.80;73.50;;;;;;1924703;74;21082;-52
2021/07/03 01:08:24;;;;;;;9.95;8.08;;;25.70;73.70;;;;;;1924673;74;21019;-53
2021/07/03 01:10:54;;;;;;;10.48;8.88;;;25.60;73.90;;;;;;1924701;74;21022;-53
2021/07/03 01:13:31;;;;;;;9.70;8.40;;;25.60;74.20;;;;;;1924802;74;21110;-53
2021/07/03 01:16:02;;;;;;;17.37;9.08;;;25.60;74.00;;;;;;1923665;74;21067;-53
2021/07/03 01:18:32;;;;;;;12.68;8.93;;;25.60;74.00;;;;;;1924585;74;21127;-53
2021/07/03 01:21:02;;;;;;;10.93;9.13;;;25.50;74.20;;;;;;1924638;74;21011;-53
2021/07/03 01:23:32;;;;;;;9.98;8.25;;;25.40;74.30;;;;;;1924758;74;21019;-53
2021/07/03 01:26:02;;;;;;;13.20;10.08;;;25.40;74.50;;;;;;1924583;74;21027;-53
2021/07/03 01:28:33;;;;;;;9.05;8.25;;;25.40;74.80;;;;;;1924096;74;21030;-53
2021/07/03 01:31:02;;;;;;;10.03;9.03;;;25.40;74.80;;;;;;1924584;74;21019;-53
2021/07/03 01:33:34;;;;;;;11.08;9.83;;;25.40;74.70;;;;;;1924602;74;21042;-53
2021/07/03 01:36:04;;;;;;;10.72;9.45;;;25.40;74.50;;;;;;1924597;74;21128;-52
2021/07/03 01:38:34;;;;;;;12.55;9.28;;;25.40;74.50;;;;;;1924867;74;21180;-53
2021/07/03 01:41:06;;;;;;;11.18;9.15;;;25.30;74.70;;;;;;1924421;74;21021;-53
2021/07/03 01:43:37;;;;;;;15.13;10.25;;;25.20;74.90;;;;;;1923280;74;21099;-54
2021/07/03 01:46:07;;;;;;;9.05;8.15;;;25.20;75.00;;;;;;1924574;74;21165;-50
2021/07/03 01:48:38;;;;;;;10.20;8.58;;;25.10;75.10;;;;;;1924534;74;21030;-52
2021/07/03 01:51:09;;;;;;;9.60;8.58;;;25.20;75.50;;;;;;1923937;74;21131;-53
2021/07/03 01:53:39;;;;;;;10.48;9.05;;;25.20;75.40;;;;;;1924681;74;20991;-53
2021/07/03 01:56:09;;;;;;;11.30;8.93;;;25.30;75.40;;;;;;1924611;74;21154;-52
2021/07/03 01:58:39;;;;;;;17.75;9.00;;;25.30;75.20;;;;;;1924781;74;21003;-52
2021/07/03 02:01:13;;;;;;;16.57;10.20;;;25.40;75.10;;;;;;1905455;74;21122;-52
2021/07/03 02:03:44;;;;;;;11.43;9.95;;;25.40;75.00;;;;;;1905005;74;21155;-54
2021/07/03 02:06:15;;;;;;;12.88;10.23;;;25.50;75.30;;;;;;1905039;74;21019;-54
2021/07/03 02:08:45;;;;;;;14.00;11.70;;;25.50;75.60;;;;;;1905288;75;21016;-53
2021/07/03 02:11:16;;;;;;;10.82;9.78;;;25.50;75.90;;;;;;1905063;74;21469;-53
2021/07/03 02:13:47;;;;;;;13.98;11.20;;;25.60;76.20;;;;;;1905023;74;21026;-53
2021/07/03 02:16:18;;;;;;;11.85;10.20;;;25.70;76.30;;;;;;1905291;75;21511;-54
2021/07/03 02:18:48;;;;;;;12.03;10.82;;;25.70;76.30;;;;;;1905319;74;21047;-54
2021/07/03 02:21:19;;;;;;;9.68;8.78;;;25.80;76.40;;;;;;1904904;74;21441;-53
2021/07/03 02:23:48;;;;;;;13.03;9.68;;;25.90;76.40;;;;;;1905385;75;21089;-53
2021/07/03 02:26:18;;;;;;;13.03;10.82;;;26.00;76.30;;;;;;1905247;74;21019;-53
2021/07/03 02:28:48;;;;;;;13.35;10.90;;;26.10;76.30;;;;;;1905271;75;21015;-52
2021/07/03 02:31:19;;;;;;;13.75;10.85;;;26.10;76.20;;;;;;1904928;74;21145;-53
2021/07/03 02:33:50;;;;;;;11.75;10.55;;;26.10;76.10;;;;;;1904958;74;21052;-52
2021/07/03 02:36:21;;;;;;;11.60;9.65;;;26.20;76.00;;;;;;1905358;74;21063;-52
2021/07/03 02:38:51;;;;;;;11.97;10.48;;;26.20;76.00;;;;;;1905340;75;21097;-53
2021/07/03 02:41:22;;;;;;;12.70;10.18;;;26.30;76.00;;;;;;1904768;74;21015;-54
2021/07/03 02:43:52;;;;;;;11.50;10.40;;;26.30;75.90;;;;;;1905322;75;21077;-52
2021/07/03 02:46:22;;;;;;;10.38;9.25;;;26.30;75.90;;;;;;1905276;74;21023;-53
2021/07/03 02:48:52;;;;;;;11.08;9.98;;;26.40;75.90;;;;;;1905246;74;21023;-53
2021/07/03 02:51:22;;;;;;;14.47;9.30;;;26.40;75.80;;;;;;1905446;75;21575;-54
2021/07/03 02:53:52;;;;;;;13.22;10.88;;;26.50;75.80;;;;;;1905298;75;21093;-53
2021/07/03 02:56:21;;;;;;;12.78;10.18;;;26.50;75.90;;;;;;1905188;74;21003;-52
2021/07/03 02:58:51;;;;;;;11.78;9.70;;;26.50;75.70;;;;;;1905241;75;21085;-53
2021/07/03 03:01:21;;;;;;;11.05;9.30;;;26.60;75.90;;;;;;1919106;74;21058;-52
2021/07/03 03:03:50;;;;;;;10.85;9.85;;;26.60;75.80;;;;;;1924609;74;21022;-53
2021/07/03 03:06:20;;;;;;;11.28;9.43;;;26.60;75.80;;;;;;1924630;74;21096;-53
2021/07/03 03:08:51;;;;;;;10.40;9.38;;;26.60;75.80;;;;;;1923862;74;21030;-53
2021/07/03 03:11:21;;;;;;;15.50;11.25;;;26.60;75.80;;;;;;1924507;74;21092;-54
2021/07/03 03:13:50;;;;;;;13.85;10.90;;;26.70;75.90;;;;;;1924702;74;20999;-53
2021/07/03 03:16:20;;;;;;;11.53;10.50;;;26.70;75.90;;;;;;1924780;74;21100;-49
2021/07/03 03:18:49;;;;;;;12.33;10.48;;;26.70;75.80;;;;;;1924600;74;21011;-53
2021/07/03 03:21:19;;;;;;;12.18;10.70;;;26.80;75.90;;;;;;1924564;74;21027;-51
2021/07/03 03:23:48;;;;;;;13.43;11.33;;;26.80;75.80;;;;;;1924497;74;21034;-53
2021/07/03 03:26:18;;;;;;;11.73;10.48;;;26.90;75.90;;;;;;1924611;74;21022;-52
2021/07/03 03:28:48;;;;;;;11.53;10.08;;;26.90;75.70;;;;;;1924624;74;21158;-52
2021/07/03 03:31:17;;;;;;;12.40;10.70;;;27.00;75.50;;;;;;1924505;74;20999;-53
2021/07/03 03:33:48;;;;;;;11.68;10.48;;;27.10;75.50;;;;;;1924453;74;21018;-53
2021/07/03 03:36:18;;;;;;;12.07;10.63;;;27.20;75.30;;;;;;1924849;74;21136;-52
2021/07/03 03:38:49;;;;;;;11.00;8.83;;;27.20;74.90;;;;;;1924635;74;21070;-54
2021/07/03 03:41:20;;;;;;;9.40;8.30;;;27.30;74.70;;;;;;1924756;74;21010;-53
2021/07/03 03:43:52;;;;;;;9.78;8.78;;;27.40;74.40;;;;;;1924663;74;21023;-52
2021/07/03 03:46:23;;;;;;;7.85;7.05;;;27.50;74.60;;;;;;1924682;74;21116;-53
2021/07/03 03:48:53;;;;;;;10.08;7.92;;;27.60;74.00;;;;;;1924580;74;21553;-52
2021/07/03 03:51:24;;;;;;;9.98;8.23;;;27.60;73.70;;;;;;1924682;74;21030;-53
2021/07/03 03:53:54;;;;;;;16.70;9.58;;;27.80;73.30;;;;;;1924689;74;21093;-53
2021/07/03 03:56:23;;;;;;;9.75;8.70;;;27.80;73.10;;;;;;1924733;74;21039;-53
2021/07/03 03:58:53;;;;;;;10.58;8.23;;;27.90;73.00;;;;;;1924688;74;21148;-53
2021/07/03 04:01:24;;;;;;;8.78;7.85;;;27.90;72.80;;;;;;1924318;74;21136;-53
2021/07/03 04:03:54;;;;;;;9.28;7.90;;;28.00;72.60;;;;;;1924629;74;21043;-53
2021/07/03 04:06:24;;;;;;;8.88;7.80;;;28.00;72.40;;;;;;1924658;74;21000;-52
2021/07/03 04:08:53;;;;;;;9.43;8.38;;;28.10;72.30;;;;;;1924541;74;21019;-53
2021/07/03 04:11:23;;;;;;;9.18;7.87;;;28.10;72.20;;;;;;1924605;74;21062;-53
2021/07/03 04:13:52;;;;;;;9.33;8.25;;;28.20;72.20;;;;;;1924558;74;20999;-53
2021/07/03 04:16:22;;;;;;;9.40;8.50;;;28.30;72.00;;;;;;1924627;74;21026;-52
2021/07/03 04:18:51;;;;;;;11.33;9.35;;;28.40;71.90;;;;;;1924510;74;21014;-54
2021/07/03 04:21:20;;;;;;;13.90;10.38;;;28.40;71.90;;;;;;1924498;74;21096;-52
2021/07/03 04:23:50;;;;;;;14.05;9.25;;;28.50;71.90;;;;;;1924479;74;21100;-52
2021/07/03 04:26:19;;;;;;;9.68;7.90;;;28.60;71.80;;;;;;1924700;74;21018;-52
2021/07/03 04:28:48;;;;;;;9.55;8.65;;;28.60;71.50;;;;;;1924516;74;21034;-50
2021/07/03 04:31:18;;;;;;;10.40;8.28;;;28.70;71.30;;;;;;1924690;74;21113;-53
2021/07/03 04:33:47;;;;;;;8.23;7.53;;;28.70;71.00;;;;;;1924621;74;21100;-50
2021/07/03 04:36:16;;;;;;;10.45;8.23;;;28.80;70.80;;;;;;1924620;74;21080;-52
2021/07/03 04:38:46;;;;;;;9.48;8.53;;;28.90;70.90;;;;;;1924581;74;21080;-53
2021/07/03 04:41:15;;;;;;;11.78;8.25;;;28.90;70.70;;;;;;1924601;74;21030;-52
2021/07/03 04:43:44;;;;;;;9.75;8.73;;;29.00;70.70;;;;;;1924616;74;21073;-52
2021/07/03 04:46:14;;;;;;;10.90;8.98;;;29.00;70.60;;;;;;1924655;74;21015;-53
2021/07/03 04:48:43;;;;;;;14.30;9.65;;;29.20;70.20;;;;;;1924493;74;21098;-52
2021/07/03 04:51:13;;;;;;;14.47;9.38;;;29.20;70.30;;;;;;1924670;74;21023;-53
2021/07/03 04:53:42;;;;;;;9.10;8.20;;;29.20;70.10;;;;;;1924682;74;21018;-52
2021/07/03 04:56:12;;;;;;;9.85;8.10;;;29.30;70.00;;;;;;1924694;74;21018;-52
2021/07/03 04:58:41;;;;;;;10.78;9.70;;;29.30;69.70;;;;;;1924609;74;21104;-52
2021/07/03 05:01:11;;;;;;;8.88;7.92;;;29.40;69.70;;;;;;1924586;74;21688;-53
2021/07/03 05:03:40;;;;;;;11.63;8.88;;;29.50;69.70;;;;;;1924606;74;21015;-52
2021/07/03 05:06:09;;;;;;;9.90;8.90;;;29.60;69.80;;;;;;1924520;74;21108;-52
2021/07/03 05:08:39;;;;;;;9.15;8.28;;;29.60;69.60;;;;;;1924467;74;21088;-53
2021/07/03 05:11:08;;;;;;;11.18;9.98;;;29.70;69.40;;;;;;1924558;74;21018;-53
2021/07/03 05:13:38;;;;;;;13.10;10.18;;;29.70;69.00;;;;;;1924639;74;21096;-53
2021/07/03 05:16:07;;;;;;;12.23;9.53;;;29.70;68.90;;;;;;1924588;74;21027;-52
2021/07/03 05:18:36;;;;;;;9.68;8.78;;;29.70;69.00;;;;;;1924625;74;21096;-53
2021/07/03 05:21:06;;;;;;;10.93;9.20;;;29.70;68.90;;;;;;1924516;74;21056;-52
2021/07/03 05:23:35;;;;;;;10.85;9.48;;;29.70;68.80;;;;;;1924590;74;21073;-53
2021/07/03 05:26:04;;;;;;;10.32;9.23;;;29.80;68.70;;;;;;1924518;74;21027;-54
2021/07/03 05:28:34;;;;;;;10.18;8.98;;;29.90;68.50;;;;;;1924541;74;21023;-53
2021/07/03 05:31:03;;;;;;;17.40;10.20;;;30.00;68.30;;;;;;1924621;74;21038;-54
2021/07/03 05:33:33;;;;;;;12.40;9.90;;;30.20;68.10;;;;;;1924638;74;21046;-53
2021/07/03 05:36:02;;;;;;;13.50;9.18;;;30.30;67.90;;;;;;1924662;74;21061;-53
2021/07/03 05:38:40;;;;;;;20.62;10.05;;;30.40;67.50;;;;;;1924546;74;21022;-51
2021/07/03 05:41:03;;;;;;;10.70;9.60;;;30.40;67.20;;;;;;1923819;74;21023;-53
2021/07/03 05:43:32;;;;;;;9.73;8.70;;;30.50;67.00;;;;;;1924544;74;21015;-53
2021/07/03 05:46:01;;;;;;;10.28;9.18;;;30.50;66.80;;;;;;1924618;74;21034;-52
2021/07/03 05:48:30;;;;;;;10.82;8.65;;;30.60;66.60;;;;;;1924522;74;21023;-53
2021/07/03 05:51:00;;;;;;;12.35;9.35;;;30.60;66.40;;;;;;1924679;74;21096;-53
2021/07/03 05:53:29;;;;;;;10.35;9.35;;;30.70;66.40;;;;;;1924524;74;21022;-53
2021/07/03 05:55:58;;;;;;;16.27;10.72;;;30.80;66.20;;;;;;1924601;74;21015;-53
2021/07/03 05:58:28;;;;;;;11.10;9.25;;;30.90;66.30;;;;;;1924662;74;21023;-52
2021/07/03 06:00:57;;;;;;;10.30;8.73;;;30.90;65.80;;;;;;1924642;74;20998;-53
2021/07/03 06:03:27;;;;;;;10.75;9.38;;;30.90;66.00;;;;;;1909044;74;21164;-53
2021/07/03 06:05:56;;;;;;;9.13;8.30;;;30.90;65.80;;;;;;1905168;75;21607;-52
2021/07/03 06:08:25;;;;;;;15.95;9.38;;;31.00;65.80;;;;;;1904980;75;21057;-53
2021/07/03 06:10:55;;;;;;;25.97;10.88;;;31.00;65.70;;;;;;1905135;75;21089;-53
2021/07/03 06:13:24;;;;;;;11.57;8.80;;;31.10;65.80;;;;;;1905241;75;21079;-53
2021/07/03 06:15:53;;;;;;;10.98;8.45;;;31.20;65.60;;;;;;1905245;75;21036;-53
2021/07/03 06:18:23;;;;;;;10.18;9.08;;;31.40;65.00;;;;;;1905120;75;21019;-53
2021/07/03 06:20:52;;;;;;;15.95;9.35;;;31.40;64.50;;;;;;1905195;75;21109;-53
2021/07/03 06:23:22;;;;;;;10.70;9.45;;;31.40;64.00;;;;;;1905263;75;20996;-53
2021/07/03 06:25:51;;;;;;;12.43;9.03;;;31.50;64.00;;;;;;1905374;75;21011;-52
2021/07/03 06:28:21;;;;;;;10.90;8.83;;;31.50;63.80;;;;;;1905131;75;21017;-53
2021/07/03 06:30:50;;;;;;;10.93;8.80;;;31.60;63.80;;;;;;1905223;75;21023;-54
2021/07/03 06:33:20;;;;;;;14.93;8.20;;;31.70;63.70;;;;;;1905130;75;21023;-53
2021/07/03 06:35:49;;;;;;;9.75;8.63;;;31.80;63.60;;;;;;1905157;75;21196;-53
2021/07/03 06:38:19;;;;;;;13.78;9.43;;;31.80;63.40;;;;;;1905127;75;21043;-52
2021/07/03 06:40:48;;;;;;;11.48;8.95;;;31.90;63.20;;;;;;1905237;75;21007;-54
2021/07/03 06:43:17;;;;;;;11.20;8.63;;;31.90;63.00;;;;;;1905127;75;21105;-54
2021/07/03 06:45:46;;;;;;;11.35;9.50;;;32.00;62.90;;;;;;1905116;74;21054;-53
2021/07/03 06:48:16;;;;;;;11.60;9.13;;;32.10;62.80;;;;;;1905037;75;21066;-52
2021/07/03 06:50:45;;;;;;;11.97;9.28;;;32.10;62.60;;;;;;1905118;75;21083;-53
2021/07/03 06:53:15;;;;;;;20.97;10.13;;;32.20;62.80;;;;;;1905155;75;21093;-52
2021/07/03 06:55:44;;;;;;;14.43;9.28;;;32.20;62.50;;;;;;1905124;75;21015;-53
2021/07/03 06:58:13;;;;;;;11.75;8.80;;;32.30;62.20;;;;;;1905089;75;21102;-51
2021/07/03 07:00:43;;;;;;;11.15;8.43;;;32.30;61.70;;;;;;1905082;74;21023;-53
2021/07/03 07:03:12;;;;;;;13.40;9.05;;;32.40;61.50;;;;;;1905076;75;21120;-52
2021/07/03 07:05:41;;;;;;;12.45;8.80;;;32.40;61.50;;;;;;1905190;75;21089;-53
2021/07/03 07:08:11;;;;;;;15.08;9.33;;;32.40;61.20;;;;;;1905263;74;21015;-53
2021/07/03 07:10:41;;;;;;;10.75;7.85;;;32.50;61.20;;;;;;1905317;75;21043;-51
2021/07/03 07:13:10;;;;;;;9.90;8.28;;;32.50;61.20;;;;;;1905176;74;21016;-53
2021/07/03 07:15:39;;;;;;;10.30;9.38;;;32.50;61.20;;;;;;1905411;74;21040;-53
2021/07/03 07:18:09;;;;;;;12.10;9.20;;;32.40;61.30;;;;;;1905277;75;20992;-53
2021/07/03 07:20:38;;;;;;;11.75;9.35;;;32.40;61.30;;;;;;1905355;75;21093;-53
2021/07/03 07:23:07;;;;;;;9.88;8.40;;;32.40;61.30;;;;;;1905198;75;21019;-52
2021/07/03 07:25:37;;;;;;;14.05;9.20;;;32.50;61.20;;;;;;1905245;75;21066;-53
2021/07/03 07:28:06;;;;;;;15.25;8.88;;;32.40;60.90;;;;;;1905139;74;21298;-53
2021/07/03 07:30:35;;;;;;;12.93;8.83;;;32.40;60.50;;;;;;1905331;75;21028;-53
2021/07/03 07:33:05;;;;;;;11.05;9.15;;;32.30;60.40;;;;;;1905317;75;20999;-53
2021/07/03 07:35:34;;;;;;;10.23;9.20;;;32.20;61.10;;;;;;1905263;75;21020;-53
2021/07/03 07:38:04;;;;;;;12.03;9.63;;;32.30;61.60;;;;;;1905181;75;21020;-53
2021/07/03 07:40:34;;;;;;;10.28;9.20;;;32.40;61.40;;;;;;1905302;75;21023;-54
2021/07/03 07:43:03;;;;;;;12.73;9.30;;;32.50;61.50;;;;;;1905217;74;21102;-53
2021/07/03 07:45:32;;;;;;;14.55;9.03;;;32.50;61.70;;;;;;1905350;75;21087;-53
2021/07/03 07:48:02;;;;;;;11.08;9.20;;;32.60;61.90;;;;;;1905295;75;21047;-54
2021/07/03 07:50:32;;;;;;;13.65;9.05;;;32.70;62.20;;;;;;1905040;75;21019;-53
2021/07/03 07:53:01;;;;;;;24.25;18.23;;;32.70;61.90;;;;;;1905161;74;20996;-53
2021/07/03 07:55:31;;;;;;;12.07;9.38;;;32.80;61.90;;;;;;1905182;75;21016;-52
2021/07/03 07:58:00;;;;;;;9.83;8.83;;;32.90;61.90;;;;;;1905134;75;21104;-53
2021/07/03 08:00:30;;;;;;;13.50;9.13;;;33.00;61.50;;;;;;1905251;75;21062;-53
2021/07/03 08:02:59;;;;;;;15.05;8.55;;;33.00;61.20;;;;;;1907114;74;21047;-53
2021/07/03 08:05:29;;;;;;;10.88;9.05;;;33.10;60.80;;;;;;1924539;74;21088;-53
2021/07/03 08:07:58;;;;;;;13.22;9.18;;;33.20;60.60;;;;;;1924429;74;21096;-53
2021/07/03 08:10:28;;;;;;;12.23;9.80;;;33.30;60.60;;;;;;1924657;74;21053;-54
2021/07/03 08:12:57;;;;;;;9.78;8.78;;;33.40;60.40;;;;;;1924661;74;21147;-53
2021/07/03 08:15:27;;;;;;;15.40;9.03;;;33.40;60.10;;;;;;1924627;74;21085;-53
2021/07/03 08:17:56;;;;;;;11.53;8.35;;;33.50;59.90;;;;;;1924666;74;21211;-53
2021/07/03 08:20:26;;;;;;;9.05;8.23;;;33.40;59.70;;;;;;1924653;74;21049;-54
2021/07/03 08:22:56;;;;;;;10.35;9.20;;;33.40;59.90;;;;;;1924773;74;20995;-53
2021/07/03 08:25:26;;;;;;;12.05;8.20;;;33.40;59.90;;;;;;1924647;74;21019;-53
2021/07/03 08:27:57;;;;;;;8.90;8.05;;;33.50;59.60;;;;;;1924614;74;21011;-53
2021/07/03 08:30:29;;;;;;;10.03;8.58;;;33.60;59.20;;;;;;1924636;74;21218;-52
2021/07/03 08:32:58;;;;;;;10.82;8.33;;;33.70;59.00;;;;;;1924678;74;20991;-53
2021/07/03 08:35:27;;;;;;;10.00;9.00;;;33.80;58.60;;;;;;1924630;74;21066;-54
2021/07/03 08:37:56;;;;;;;11.12;8.80;;;33.90;58.00;;;;;;1924751;74;21088;-53
2021/07/03 08:40:26;;;;;;;9.28;8.48;;;33.80;58.50;;;;;;1924717;74;21015;-53
2021/07/03 08:42:55;;;;;;;11.38;8.65;;;33.70;58.60;;;;;;1924639;74;21031;-54
2021/07/03 08:45:25;;;;;;;19.48;9.23;;;33.60;58.80;;;;;;1924559;74;21104;-53
2021/07/03 08:47:54;;;;;;;15.43;8.73;;;33.50;58.90;;;;;;1924496;74;21026;-53
2021/07/03 08:50:24;;;;;;;15.40;9.15;;;33.40;59.10;;;;;;1924517;74;21014;-54
2021/07/03 08:52:53;;;;;;;9.78;8.28;;;33.30;58.90;;;;;;1924471;74;21096;-53
2021/07/03 08:55:27;;;;;;;10.50;9.43;;;33.30;59.00;;;;;;1924614;74;20998;-53
2021/07/03 08:58:08;;;;;;;13.00;8.95;;;33.40;58.90;;;;;;1924866;74;21041;-54
2021/07/03 09:00:38;;;;;;;16.00;9.33;;;33.50;58.70;;;;;;1923187;74;21030;-52
2021/07/03 09:03:16;;;;;;;14.03;8.98;;;33.70;59.10;;;;;;1924559;74;21066;-54
2021/07/03 09:05:54;;;;;;;11.05;8.50;;;33.80;59.10;;;;;;1905406;74;21039;-53
2021/07/03 09:08:20;;;;;;;9.65;8.50;;;34.00;58.70;;;;;;1903635;74;21108;-54
2021/07/03 09:10:50;;;;;;;10.78;9.13;;;34.10;58.40;;;;;;1905176;75;20995;-54
2021/07/03 09:13:20;;;;;;;14.03;8.85;;;34.20;58.20;;;;;;1904516;74;21020;-53
2021/07/03 09:15:50;;;;;;;13.68;8.58;;;34.30;57.80;;;;;;1905308;74;21019;-53
2021/07/03 09:18:20;;;;;;;12.78;8.78;;;34.40;57.30;;;;;;1905245;75;21144;-53
2021/07/03 09:20:54;;;;;;;8.30;7.42;;;34.40;57.40;;;;;;1905225;75;21019;-54
2021/07/03 09:23:26;;;;;;;9.73;8.00;;;34.50;57.60;;;;;;1905178;75;21031;-54
2021/07/03 09:25:58;;;;;;;12.03;8.63;;;34.50;57.40;;;;;;1905275;75;21523;-53
2021/07/03 09:28:37;;;;;;;9.15;8.20;;;34.50;57.40;;;;;;1905203;75;21140;-52
2021/07/03 09:31:08;;;;;;;9.90;8.20;;;34.50;57.40;;;;;;1904937;75;21117;-53
2021/07/03 09:33:40;;;;;;;10.35;8.70;;;34.60;56.90;;;;;;1905283;74;21149;-54
2021/07/03 09:36:11;;;;;;;10.23;8.30;;;34.50;57.10;;;;;;1904594;74;21036;-54
2021/07/03 09:38:45;;;;;;;13.35;9.08;;;34.50;57.40;;;;;;1905306;75;21101;-53
2021/07/03 09:41:17;;;;;;;12.07;9.00;;;34.50;57.20;;;;;;1905384;75;21555;-55
2021/07/03 09:43:54;;;;;;;10.55;8.40;;;34.50;57.00;;;;;;1905305;75;21105;-54
2021/07/03 09:46:32;;;;;;;9.03;8.13;;;34.60;56.80;;;;;;1905286;74;21100;-55
2021/07/03 09:49:06;;;;;;;8.83;7.90;;;34.70;56.50;;;;;;1905297;75;21133;-53
2021/07/03 09:51:38;;;;;;;14.47;9.50;;;34.70;56.20;;;;;;1905509;74;21039;-54
2021/07/03 09:54:09;;;;;;;14.85;9.23;;;34.70;56.10;;;;;;1905182;75;21063;-54
2021/07/03 09:56:40;;;;;;;9.18;8.28;;;34.70;55.50;;;;;;1905202;75;21004;-53
2021/07/03 09:59:10;;;;;;;15.23;9.18;;;34.60;54.60;;;;;;1905284;75;21170;-53
2021/07/03 10:01:44;;;;;;;8.90;7.80;;;34.70;55.10;;;;;;1905190;75;21105;-53
2021/07/03 10:04:11;;;;;;;15.93;8.55;;;34.70;55.50;;;;;;1905528;74;21476;-51
2021/07/03 10:06:48;;;;;;;8.70;7.80;;;34.70;55.30;;;;;;1924689;74;21092;-52
2021/07/03 10:09:26;;;;;;;10.60;7.40;;;34.80;55.10;;;;;;1924467;74;21054;-52
2021/07/03 10:11:58;;;;;;;22.60;9.65;;;34.90;54.80;;;;;;1924482;74;21018;-52
2021/07/03 10:14:27;;;;;;;10.78;8.08;;;35.00;54.90;;;;;;1924475;74;21010;-52
2021/07/03 10:17:03;;;;;;;10.32;7.80;;;35.00;54.60;;;;;;1924545;74;21100;-52
2021/07/03 10:19:38;;;;;;;10.75;8.33;;;35.10;54.10;;;;;;1924472;74;21115;-53
2021/07/03 10:22:16;;;;;;;11.08;8.63;;;35.00;54.00;;;;;;1924490;74;21316;-53
2021/07/03 10:24:54;;;;;;;11.85;8.25;;;35.00;53.60;;;;;;1924317;74;21046;-52
2021/07/03 10:27:28;;;;;;;8.08;7.15;;;35.10;53.50;;;;;;1924620;74;21097;-52
2021/07/03 10:30:03;;;;;;;17.05;7.03;;;35.10;53.90;;;;;;1924166;74;21050;-52
2021/07/03 10:32:34;;;;;;;7.75;6.95;;;35.10;54.10;;;;;;1924614;74;21031;-52
2021/07/03 10:35:12;;;;;;;8.35;7.50;;;35.10;54.30;;;;;;1924566;74;21019;-53
2021/07/03 10:37:42;;;;;;;12.75;7.95;;;35.10;54.40;;;;;;1924548;74;21019;-53
2021/07/03 10:40:25;;;;;;;13.58;8.55;;;35.10;54.20;;;;;;1924624;74;21018;-53
2021/07/03 10:42:56;;;;;;;8.05;7.30;;;35.10;53.70;;;;;;1924484;74;21096;-52
2021/07/03 10:45:26;;;;;;;8.50;7.70;;;35.20;53.80;;;;;;1923242;74;21502;-52
2021/07/03 10:47:56;;;;;;;9.90;7.72;;;35.20;53.70;;;;;;1924603;74;21088;-52
2021/07/03 10:50:30;;;;;;;7.95;7.17;;;35.30;53.60;;;;;;1924615;74;21132;-52
2021/07/03 10:52:59;;;;;;;12.37;7.20;;;35.30;53.70;;;;;;1924677;74;21080;-52
2021/07/03 10:55:31;;;;;;;11.83;8.95;;;35.30;53.60;;;;;;1924742;74;21023;-50
2021/07/03 10:58:01;;;;;;;11.70;7.45;;;35.30;53.80;;;;;;1924481;74;21019;-52
2021/07/03 11:00:30;;;;;;;8.25;6.95;;;35.30;53.60;;;;;;1924469;74;21098;-53
2021/07/03 11:02:59;;;;;;;8.58;7.53;;;35.30;53.50;;;;;;1924435;74;21089;-52
2021/07/03 11:05:36;;;;;;;9.95;7.53;;;35.40;54.20;;;;;;1924553;74;21062;-52
2021/07/03 11:08:13;;;;;;;11.93;8.00;;;35.40;53.20;;;;;;1924443;74;21121;-53
2021/07/03 11:10:44;;;;;;;38.65;34.75;;;35.50;53.20;;;;;;1924569;74;21007;-52
2021/07/03 11:13:23;;;;;;;11.12;7.42;;;35.50;52.90;;;;;;1924426;74;21018;-52
2021/07/03 11:15:53;;;;;;;8.83;7.47;;;35.60;53.00;;;;;;1924488;74;21023;-53
2021/07/03 11:18:22;;;;;;;8.53;6.97;;;35.50;52.90;;;;;;1924484;74;21085;-53
2021/07/03 11:20:52;;;;;;;16.87;7.20;;;35.50;53.80;;;;;;1924540;74;21046;-52
2021/07/03 11:23:22;;;;;;;10.08;7.65;;;35.50;53.60;;;;;;1924435;74;21014;-50
2021/07/03 11:25:51;;;;;;;13.32;6.92;;;35.50;53.60;;;;;;1924619;74;21022;-52
2021/07/03 11:28:27;;;;;;;8.00;7.20;;;35.40;53.90;;;;;;1924487;74;20999;-52
2021/07/03 11:31:03;;;;;;;8.18;7.00;;;35.40;53.80;;;;;;1924325;74;21449;-52
2021/07/03 11:33:34;;;;;;;14.73;7.58;;;35.50;53.90;;;;;;1924509;74;21027;-51
2021/07/03 11:36:07;;;;;;;10.28;7.22;;;35.50;53.90;;;;;;1924439;74;21100;-51
2021/07/03 11:38:36;;;;;;;11.40;7.05;;;35.40;54.10;;;;;;1924566;74;21019;-52
2021/07/03 11:41:06;;;;;;;7.50;6.80;;;35.30;54.20;;;;;;1924575;74;21026;-51
2021/07/03 11:43:35;;;;;;;11.55;7.95;;;35.30;54.60;;;;;;1924419;74;21092;-52
2021/07/03 11:46:05;;;;;;;10.45;8.60;;;35.40;54.10;;;;;;1924490;74;21019;-53
2021/07/03 11:48:35;;;;;;;8.15;7.30;;;35.30;54.00;;;;;;1924396;74;21101;-52
2021/07/03 11:51:05;;;;;;;18.10;12.90;;;35.30;54.10;;;;;;1924438;74;21030;-53
2021/07/03 11:53:35;;;;;;;29.67;26.65;;;35.30;54.80;;;;;;1924432;74;21055;-52
2021/07/03 11:56:05;;;;;;;10.38;7.25;;;35.30;54.10;;;;;;1924643;74;21066;-51
2021/07/03 11:58:35;;;;;;;9.30;7.15;;;35.30;54.10;;;;;;1924509;74;21113;-53
2021/07/03 12:01:06;;;;;;;12.25;7.65;;;35.50;54.00;;;;;;1924483;74;21026;-53
2021/07/03 12:03:37;;;;;;;11.93;7.35;;;35.50;54.10;;;;;;1924510;74;21101;-53
2021/07/03 12:06:08;;;;;;;11.43;8.05;;;35.50;53.50;;;;;;1924425;74;21131;-52
2021/07/03 12:08:40;;;;;;;10.32;7.62;;;35.60;53.40;;;;;;1924546;74;21457;-53
2021/07/03 12:11:11;;;;;;;9.68;7.05;;;35.50;53.00;;;;;;1924539;74;21070;-53
2021/07/03 12:13:42;;;;;;;10.18;7.67;;;35.50;53.30;;;;;;1924557;74;21014;-53
2021/07/03 12:16:13;;;;;;;10.03;7.53;;;35.60;53.30;;;;;;1922458;74;21469;-52
2021/07/03 12:18:45;;;;;;;10.58;7.42;;;35.60;53.00;;;;;;1924771;74;21104;-53
2021/07/03 12:21:20;;;;;;;11.55;7.40;;;35.70;53.30;;;;;;1924710;74;21465;-53
2021/07/03 12:23:52;;;;;;;7.55;6.80;;;35.80;53.00;;;;;;1924540;74;21015;-53
2021/07/03 12:26:29;;;;;;;10.75;7.33;;;35.80;53.40;;;;;;1924035;74;21023;-52
2021/07/03 12:29:07;;;;;;;8.90;7.45;;;35.80;53.30;;;;;;1924553;74;21139;-52
2021/07/03 12:31:41;;;;;;;9.60;7.37;;;35.60;53.50;;;;;;1924559;74;21038;-53
2021/07/03 12:34:22;;;;;;;11.33;7.20;;;35.50;53.30;;;;;;1924573;74;21018;-53
2021/07/03 12:36:50;;;;;;;10.80;7.83;;;35.50;53.70;;;;;;1924011;74;21042;-53
2021/07/03 12:39:23;;;;;;;9.28;7.22;;;35.40;54.00;;;;;;1924360;74;21097;-53
2021/07/03 12:41:57;;;;;;;8.15;7.35;;;35.50;54.00;;;;;;1924557;74;20994;-52
2021/07/03 12:44:44;;;;;;;9.48;7.47;;;35.50;54.20;;;;;;1924635;74;21104;-52
2021/07/03 12:47:15;;;;;;;8.95;7.87;;;35.50;54.60;;;;;;1924655;74;21080;-52
2021/07/03 12:49:47;;;;;;;13.32;7.78;;;35.40;55.10;;;;;;1924573;74;21155;-52
2021/07/03 12:52:16;;;;;;;9.78;7.17;;;35.50;54.70;;;;;;1924674;74;21560;-53
2021/07/03 12:54:46;;;;;;;7.70;6.85;;;35.40;54.20;;;;;;1924658;74;21012;-52